Time;durP1;ratioP1;P1;durP2;ratioP2;P2;SDS_P1;SDS_P2;PMS_P1;PMS_P2;Temp;Humidity;BMP_temperature;BMP_pressure;BME280_temperature;BME280_humidity;BME280_pressure;Samples;Min_cycle;Max_cycle;Signal;HPM_P1;HPM_P2
2021/04/05 00:00:16;;;;;;;17.42;10.80;;;;;;;5.16;33.89;100481.81;4982617;28;97934;-75
2021/04/05 00:02:43;;;;;;;11.77;9.02;;;;;;;5.16;33.94;100475.63;4981818;28;99360;-75
2021/04/05 00:05:15;;;;;;;14.45;10.05;;;;;;;5.17;33.97;100478.31;4982223;28;97624;-75
2021/04/05 00:07:43;;;;;;;12.50;10.00;;;;;;;5.14;33.83;100475.56;4963477;28;97286;-75
2021/04/05 00:10:13;;;;;;;13.20;9.73;;;;;;;5.13;34.03;100479.06;4989191;28;97193;-75
2021/04/05 00:12:40;;;;;;;15.07;10.00;;;;;;;5.13;33.71;100472.88;4948394;28;100028;-75
2021/04/05 00:15:09;;;;;;;18.30;10.15;;;;;;;5.11;33.93;100461.38;4981536;28;99053;-75
2021/04/05 00:17:37;;;;;;;12.82;10.30;;;;;;;5.10;33.97;100452.56;4963722;28;97745;-75
2021/04/05 00:20:08;;;;;;;18.27;11.48;;;;;;;5.06;33.93;100437.44;4981392;28;97765;-74
2021/04/05 00:22:34;;;;;;;13.35;9.68;;;;;;;5.02;34.04;100430.28;4982321;28;98160;-75
2021/04/05 00:25:20;;;;;;;11.38;9.88;;;;;;;4.93;33.99;100427.28;4979599;28;97853;-75
2021/04/05 00:27:48;;;;;;;11.75;9.55;;;;;;;4.91;34.09;100409.59;4982273;28;96944;-75
2021/04/05 00:30:20;;;;;;;13.13;10.18;;;;;;;4.96;34.10;100402.75;4947851;28;96983;-75
2021/04/05 00:32:47;;;;;;;13.10;9.32;;;;;;;4.97;34.07;100396.66;4963231;28;97985;-75
2021/04/05 00:35:15;;;;;;;11.63;9.10;;;;;;;4.96;33.75;100395.75;4962653;28;100407;-75
2021/04/05 00:37:42;;;;;;;12.75;9.82;;;;;;;4.98;33.75;100387.88;4979715;28;97424;-75
2021/04/05 00:40:12;;;;;;;14.27;10.20;;;;;;;5.02;33.83;100387.16;4981299;28;97559;-74
2021/04/05 00:42:41;;;;;;;12.05;9.23;;;;;;;5.05;33.81;100385.56;4969294;28;98056;-75
2021/04/05 00:45:10;;;;;;;13.48;9.82;;;;;;;5.10;33.87;100369.94;4963932;28;99266;-76
2021/04/05 00:47:37;;;;;;;10.70;9.52;;;;;;;5.10;34.21;100376.06;4963499;28;96924;-77
2021/04/05 00:50:07;;;;;;;10.55;8.35;;;;;;;5.09;33.84;100357.56;4996596;28;96936;-75
2021/04/05 00:52:35;;;;;;;12.50;9.20;;;;;;;5.10;33.78;100339.16;4995842;28;97937;-75
2021/04/05 00:55:03;;;;;;;12.00;9.00;;;;;;;5.12;33.66;100337.47;4981098;28;97673;-75
2021/04/05 00:57:30;;;;;;;11.35;8.77;;;;;;;5.12;33.75;100332.19;4980998;28;97905;-76
2021/04/05 00:59:57;;;;;;;10.95;8.95;;;;;;;5.14;33.77;100317.34;4963456;28;96903;-74
2021/04/05 01:02:25;;;;;;;12.13;8.52;;;;;;;5.15;33.72;100312.97;4953770;28;98114;-75
2021/04/05 01:04:52;;;;;;;10.50;9.00;;;;;;;5.12;33.67;100315.47;4981301;28;98813;-75
2021/04/05 01:07:18;;;;;;;12.15;9.35;;;;;;;5.13;33.85;100305.00;4952148;28;97820;-75
2021/04/05 01:09:45;;;;;;;10.75;8.65;;;;;;;5.12;33.76;100291.75;4961672;28;96893;-74
2021/04/05 01:12:12;;;;;;;11.93;9.00;;;;;;;5.09;33.75;100279.38;4981314;28;97662;-77
2021/04/05 01:14:39;;;;;;;12.93;9.57;;;;;;;5.04;33.76;100275.69;4980946;28;99051;-75
2021/04/05 01:17:07;;;;;;;14.40;10.52;;;;;;;5.06;33.97;100267.81;4947091;28;96898;-75
2021/04/05 01:19:33;;;;;;;11.45;9.77;;;;;;;5.04;33.82;100244.03;4981801;28;97940;-76
2021/04/05 01:22:02;;;;;;;10.30;8.70;;;;;;;5.09;33.74;100238.91;4951758;28;99896;-75
2021/04/05 01:24:28;;;;;;;11.32;9.13;;;;;;;5.11;33.68;100232.84;4983430;28;98019;-74
2021/04/05 01:26:55;;;;;;;15.23;9.98;;;;;;;5.11;33.69;100231.94;4950192;28;97603;-75
2021/04/05 01:29:22;;;;;;;13.13;10.30;;;;;;;5.06;33.95;100220.34;4995637;28;96958;-77
2021/04/05 01:31:49;;;;;;;15.90;9.55;;;;;;;5.05;33.77;100216.81;4963749;28;99363;-75
2021/04/05 01:34:16;;;;;;;12.07;10.00;;;;;;;5.02;33.82;100207.88;4978931;28;100674;-75
2021/04/05 01:36:43;;;;;;;13.18;9.45;;;;;;;4.98;34.13;100195.41;4979852;28;97905;-74
2021/04/05 01:39:10;;;;;;;15.35;10.60;;;;;;;4.97;34.02;100189.25;4979963;28;96792;-75
2021/04/05 01:41:37;;;;;;;16.80;11.48;;;;;;;4.92;34.05;100176.75;4979931;28;97871;-74
2021/04/05 01:44:04;;;;;;;16.83;10.80;;;;;;;4.92;34.01;100174.13;4979030;28;97774;-74
2021/04/05 01:46:31;;;;;;;15.77;11.45;;;;;;;4.90;34.31;100165.28;4979793;28;97241;-74
2021/04/05 01:48:58;;;;;;;20.83;12.00;;;;;;;4.88;33.89;100157.31;4962621;28;97001;-75
2021/04/05 01:51:26;;;;;;;17.00;11.57;;;;;;;4.88;34.26;100145.88;4945572;28;100675;-74
2021/04/05 01:53:54;;;;;;;20.35;12.40;;;;;;;4.88;34.31;100140.63;4978144;28;97702;-74
2021/04/05 01:56:22;;;;;;;17.83;12.52;;;;;;;4.90;34.01;100131.03;4978932;28;96928;-75
2021/04/05 01:58:50;;;;;;;21.10;12.80;;;;;;;4.91;34.05;100116.97;4980226;28;97411;-74
2021/04/05 02:01:19;;;;;;;21.20;13.90;;;;;;;4.92;34.17;100122.28;4943751;28;100880;-75
2021/04/05 02:03:46;;;;;;;31.83;15.38;;;;;;;4.90;34.17;100115.19;4960997;28;99315;-74
2021/04/05 02:06:18;;;;;;;24.10;13.43;;;;;;;4.86;34.26;100100.13;4960611;28;97879;-75
2021/04/05 02:08:45;;;;;;;23.63;13.43;;;;;;;4.87;34.16;100086.09;4980185;28;97113;-75
2021/04/05 02:11:14;;;;;;;20.13;13.00;;;;;;;4.88;34.03;100082.63;4960823;28;98846;-75
2021/04/05 02:13:42;;;;;;;23.30;14.10;;;;;;;4.83;34.30;100076.28;4961743;28;100017;-75
2021/04/05 02:16:12;;;;;;;23.13;14.70;;;;;;;4.88;34.27;100064.16;4960902;28;97413;-75
2021/04/05 02:18:39;;;;;;;22.10;12.77;;;;;;;4.89;34.16;100064.22;4968868;28;97408;-75
2021/04/05 02:21:09;;;;;;;23.00;13.63;;;;;;;4.88;34.32;100059.78;4978661;28;98709;-75
2021/04/05 02:23:36;;;;;;;24.73;13.18;;;;;;;4.83;34.38;100048.19;4961819;28;99659;-75
2021/04/05 02:26:06;;;;;;;24.65;13.93;;;;;;;4.79;34.20;100056.84;4979634;28;97452;-75
2021/04/05 02:28:35;;;;;;;24.45;14.07;;;;;;;4.83;34.15;100042.00;4944478;28;97237;-75
2021/04/05 02:31:03;;;;;;;25.60;13.57;;;;;;;4.82;34.30;100035.88;4979503;28;98733;-75
2021/04/05 02:33:30;;;;;;;23.30;14.07;;;;;;;4.80;34.28;100032.28;4978024;28;98086;-75
2021/04/05 02:35:57;;;;;;;28.38;14.75;;;;;;;4.83;34.10;100020.94;4944896;28;97011;-75
2021/04/05 02:38:24;;;;;;;24.75;14.77;;;;;;;4.83;34.55;100006.03;4982250;28;97875;-75
2021/04/05 02:40:50;;;;;;;21.88;13.05;;;;;;;4.83;34.50;99994.56;4981932;28;97604;-74
2021/04/05 02:43:17;;;;;;;24.88;15.20;;;;;;;4.92;34.08;99986.94;4982395;28;97980;-75
2021/04/05 02:45:44;;;;;;;22.02;13.27;;;;;;;4.96;34.02;99987.09;4983230;28;96887;-75
2021/04/05 02:48:31;;;;;;;20.92;12.80;;;;;;;4.98;33.98;99979.25;4964627;28;97927;-75
2021/04/05 02:51:02;;;;;;;22.02;13.02;;;;;;;4.99;34.07;99978.41;4983383;28;97689;-75
2021/04/05 02:53:29;;;;;;;22.17;12.35;;;;;;;5.02;34.19;99981.13;4982735;28;99255;-75
2021/04/05 02:55:56;;;;;;;21.10;12.50;;;;;;;5.04;34.00;99974.19;4980423;28;96903;-75
2021/04/05 02:58:23;;;;;;;20.42;12.65;;;;;;;5.08;34.05;99971.69;4983184;28;97509;-75
2021/04/05 03:00:50;;;;;;;18.80;12.45;;;;;;;5.13;34.02;99969.19;4964487;28;98726;-75
2021/04/05 03:03:17;;;;;;;19.30;12.88;;;;;;;5.15;33.88;99955.22;4948033;28;100391;-74
2021/04/05 03:05:46;;;;;;;20.42;12.68;;;;;;;5.21;34.04;99957.13;4982097;28;96744;-75
2021/04/05 03:08:14;;;;;;;25.40;13.13;;;;;;;5.24;33.89;99949.31;4965209;28;97351;-75
2021/04/05 03:10:41;;;;;;;22.48;12.85;;;;;;;5.25;33.88;99940.53;4956044;28;100234;-75
2021/04/05 03:13:09;;;;;;;25.75;13.70;;;;;;;5.20;33.85;99931.63;4963479;28;99680;-75
2021/04/05 03:15:36;;;;;;;28.40;15.27;;;;;;;5.19;34.00;99911.38;4981024;28;96918;-74
2021/04/05 03:18:05;;;;;;;27.40;15.27;;;;;;;5.20;33.87;99918.44;4948035;28;96885;-75
2021/04/05 03:20:34;;;;;;;26.90;14.43;;;;;;;5.17;33.97;99924.50;4963613;28;99355;-74
2021/04/05 03:23:03;;;;;;;30.92;16.08;;;;;;;5.17;33.94;99919.22;4964220;28;99994;-75
2021/04/05 03:25:30;;;;;;;31.20;15.13;;;;;;;5.12;34.03;99912.94;4963073;28;97222;-75
2021/04/05 03:27:57;;;;;;;27.17;15.10;;;;;;;5.08;34.11;99903.13;4948529;28;97286;-75
2021/04/05 03:30:29;;;;;;;30.92;14.93;;;;;;;5.06;34.04;99903.97;4962729;28;97248;-75
2021/04/05 03:32:59;;;;;;;29.92;15.60;;;;;;;5.02;34.23;99907.31;4963607;28;98018;-75
2021/04/05 03:35:31;;;;;;;26.70;15.43;;;;;;;4.99;34.38;99879.09;4983775;28;97435;-75
2021/04/05 03:38:00;;;;;;;27.95;16.25;;;;;;;5.01;34.23;99866.00;4963891;28;96779;-76
2021/04/05 03:40:29;;;;;;;27.00;14.60;;;;;;;5.04;34.33;99868.75;4962628;28;100999;-75
2021/04/05 03:43:02;;;;;;;26.60;14.98;;;;;;;5.05;34.47;99857.34;4947294;28;97901;-74
2021/04/05 03:45:37;;;;;;;22.90;14.55;;;;;;;5.03;34.51;99845.84;4981833;28;97943;-74
2021/04/05 03:48:08;;;;;;;27.77;14.90;;;;;;;5.02;34.29;99838.78;4979850;28;96945;-75
2021/04/05 03:50:58;;;;;;;26.60;14.80;;;;;;;5.01;34.18;99837.00;4981408;28;97914;-75
2021/04/05 03:53:33;;;;;;;26.90;14.65;;;;;;;5.01;34.50;99845.78;4963887;28;100594;-75
2021/04/05 03:56:05;;;;;;;24.58;15.25;;;;;;;4.98;34.18;99850.06;4981151;28;96859;-75
2021/04/05 03:58:32;;;;;;;30.60;15.95;;;;;;;4.96;34.71;99850.03;4964205;28;97182;-75
2021/04/05 04:01:05;;;;;;;29.98;14.27;;;;;;;5.01;34.64;99853.69;4961999;28;99880;-75
2021/04/05 04:03:38;;;;;;;29.83;15.50;;;;;;;4.99;34.33;99836.94;4946560;28;100410;-74
2021/04/05 04:06:05;;;;;;;26.60;14.23;;;;;;;5.01;34.12;99826.44;4962122;28;97256;-75
2021/04/05 04:08:37;;;;;;;24.95;13.05;;;;;;;5.04;34.19;99823.94;4979159;28;98094;-75
2021/04/05 04:11:09;;;;;;;25.38;13.60;;;;;;;5.05;34.09;99817.78;4973426;28;98071;-75
2021/04/05 04:13:39;;;;;;;27.48;15.15;;;;;;;5.03;34.14;99804.56;4962565;28;98754;-74
2021/04/05 04:16:06;;;;;;;28.42;14.88;;;;;;;5.08;34.21;99787.13;4962975;28;97298;-75
2021/04/05 04:18:33;;;;;;;24.52;14.35;;;;;;;5.09;34.04;99803.84;4962789;28;97732;-74
2021/04/05 04:21:01;;;;;;;29.00;15.90;;;;;;;5.10;34.06;99810.91;4962051;28;98990;-75
2021/04/05 04:23:28;;;;;;;29.42;15.40;;;;;;;5.11;34.08;99799.50;4963917;28;97910;-74
2021/04/05 04:25:55;;;;;;;24.88;14.27;;;;;;;5.14;34.05;99786.41;4963820;28;97670;-75
2021/04/05 04:28:23;;;;;;;27.85;15.27;;;;;;;5.21;33.95;99780.44;4983848;28;96879;-75
2021/04/05 04:30:55;;;;;;;23.02;13.65;;;;;;;5.29;34.18;99781.53;4964339;28;99796;-75
2021/04/05 04:33:21;;;;;;;25.73;14.93;;;;;;;5.34;33.75;99774.63;4964347;28;99404;-74
2021/04/05 04:35:48;;;;;;;28.98;14.75;;;;;;;5.41;33.83;99766.00;4948205;28;96967;-75
2021/04/05 04:38:15;;;;;;;24.85;14.60;;;;;;;5.47;33.65;99750.34;4963693;28;97351;-75
2021/04/05 04:40:42;;;;;;;27.08;14.60;;;;;;;5.51;33.68;99746.94;4963446;28;100408;-75
2021/04/05 04:43:09;;;;;;;24.60;14.55;;;;;;;5.59;33.85;99752.41;4982100;28;101121;-75
2021/04/05 04:45:37;;;;;;;27.58;15.32;;;;;;;5.66;33.47;99747.31;4947723;28;96530;-75
2021/04/05 04:48:05;;;;;;;30.33;15.07;;;;;;;5.68;33.60;99739.44;4979358;28;97723;-75
2021/04/05 04:50:31;;;;;;;30.92;15.45;;;;;;;5.71;33.48;99716.66;4962490;28;98082;-75
2021/04/05 04:52:58;;;;;;;29.10;14.88;;;;;;;5.75;33.63;99707.06;4963239;28;100898;-75
2021/04/05 04:55:27;;;;;;;27.77;15.35;;;;;;;5.84;33.51;99705.53;4961704;28;97836;-74
2021/04/05 04:57:55;;;;;;;31.25;17.45;;;;;;;5.91;33.73;99704.78;4981208;28;97766;-76
2021/04/05 05:00:23;;;;;;;26.95;15.95;;;;;;;5.92;33.65;99703.94;4962558;28;99630;-74
2021/04/05 05:02:51;;;;;;;22.00;14.85;;;;;;;5.95;33.74;99693.47;4961931;28;97042;-74
2021/04/05 05:05:21;;;;;;;26.15;15.10;;;;;;;5.96;33.78;99674.09;4962680;28;97191;-74
2021/04/05 05:07:48;;;;;;;31.08;15.93;;;;;;;5.99;33.92;99676.84;4963396;28;96805;-74
2021/04/05 05:10:16;;;;;;;28.10;15.43;;;;;;;6.01;33.99;99668.94;4963199;28;99280;-75
2021/04/05 05:12:43;;;;;;;28.58;16.40;;;;;;;6.05;33.83;99650.53;4962161;28;100811;-75
2021/04/05 05:15:12;;;;;;;35.42;16.63;;;;;;;6.07;33.98;99662.03;4946810;28;97354;-75
2021/04/05 05:17:40;;;;;;;28.73;17.15;;;;;;;6.05;33.87;99657.59;4962567;28;97705;-75
2021/04/05 05:20:11;;;;;;;31.33;16.85;;;;;;;6.06;33.95;99660.25;4961191;28;99583;-74
2021/04/05 05:22:41;;;;;;;27.50;15.48;;;;;;;6.08;34.23;99658.53;4945688;28;100757;-74
2021/04/05 05:25:10;;;;;;;26.88;16.17;;;;;;;6.07;33.97;99635.63;4979536;28;98622;-75
2021/04/05 05:27:40;;;;;;;29.60;16.00;;;;;;;6.05;34.32;99663.75;4961418;28;97463;-75
2021/04/05 05:30:08;;;;;;;31.88;16.55;;;;;;;6.05;34.00;99639.09;4979081;28;98063;-76
2021/04/05 05:32:35;;;;;;;37.13;16.92;;;;;;;5.98;34.26;99701.44;4945922;28;101185;-74
2021/04/05 05:35:02;;;;;;;31.40;15.85;;;;;;;5.94;34.30;99654.69;4963417;28;97788;-75
2021/04/05 05:37:30;;;;;;;35.72;16.80;;;;;;;5.96;34.25;99645.06;4962023;28;97182;-75
2021/04/05 05:39:57;;;;;;;35.30;17.23;;;;;;;6.01;34.32;99651.31;4944764;28;100365;-76
2021/04/05 05:42:34;;;;;;;33.97;17.42;;;;;;;6.02;35.03;99657.50;4981018;28;97762;-75
2021/04/05 05:45:05;;;;;;;27.73;15.73;;;;;;;6.07;34.47;99655.84;4961544;28;97225;-74
2021/04/05 05:47:37;;;;;;;30.75;16.80;;;;;;;6.09;34.04;99633.00;4961315;28;97550;-75
2021/04/05 05:50:14;;;;;;;30.17;16.90;;;;;;;6.10;34.76;99611.91;4961392;28;98111;-75
2021/04/05 05:52:50;;;;;;;31.65;16.35;;;;;;;6.08;35.23;99615.38;4968566;28;99924;-75
2021/04/05 05:55:46;;;;;;;32.22;16.58;;;;;;;6.10;35.31;99614.53;4961221;28;97628;-75
2021/04/05 05:58:16;;;;;;;26.85;16.05;;;;;;;6.12;34.39;99612.81;4944761;28;97199;-75
2021/04/05 06:00:47;;;;;;;31.70;17.25;;;;;;;6.16;34.83;99621.69;4960439;28;98299;-75
2021/04/05 06:03:21;;;;;;;36.78;16.27;;;;;;;6.15;34.91;99602.34;4961734;28;99159;-75
2021/04/05 06:05:55;;;;;;;32.42;15.75;;;;;;;6.21;34.32;99601.56;4962080;28;97553;-75
2021/04/05 06:08:34;;;;;;;30.55;17.00;;;;;;;6.19;35.49;99608.56;4978904;28;97084;-75
2021/04/05 06:11:08;;;;;;;29.25;17.08;;;;;;;6.22;34.40;99598.97;4978357;28;97922;-75
2021/04/05 06:13:45;;;;;;;35.70;16.88;;;;;;;6.27;34.71;99592.91;4962074;28;97950;-74
2021/04/05 06:16:37;;;;;;;34.60;17.50;;;;;;;6.32;35.04;99583.31;4944667;28;97515;-75
2021/04/05 06:19:24;;;;;;;34.20;17.52;;;;;;;6.32;35.90;99588.59;4961728;28;98773;-75
2021/04/05 06:21:58;;;;;;;32.83;18.40;;;;;;;6.34;34.83;99573.69;4961821;28;97304;-77
2021/04/05 06:24:31;;;;;;;29.90;16.30;;;;;;;6.35;34.26;99575.44;4979886;28;98897;-76
2021/04/05 06:27:04;;;;;;;35.83;18.17;;;;;;;6.32;34.19;99563.09;4979388;28;97244;-76
2021/04/05 06:29:36;;;;;;;28.00;17.13;;;;;;;6.27;35.13;99585.88;4961651;28;97916;-76
2021/04/05 06:32:26;;;;;;;34.30;17.73;;;;;;;6.31;35.09;99565.66;4960869;28;98558;-76
2021/04/05 06:35:08;;;;;;;37.78;18.45;;;;;;;6.33;34.94;99553.38;4962311;28;100708;-76
2021/04/05 06:37:57;;;;;;;33.75;18.05;;;;;;;6.34;34.26;99541.97;4978125;28;97721;-75
2021/04/05 06:40:28;;;;;;;31.05;17.85;;;;;;;6.34;34.88;99541.97;4962033;28;97535;-75
2021/04/05 06:43:25;;;;;;;33.72;17.20;;;;;;;6.34;36.53;99560.47;4962406;28;98940;-75
2021/04/05 06:45:56;;;;;;;31.38;16.77;;;;;;;6.34;34.46;99545.53;4978782;28;97722;-75
2021/04/05 06:48:53;;;;;;;34.88;17.67;;;;;;;6.37;35.44;99534.09;4960650;28;97691;-76
2021/04/05 06:51:45;;;;;;;30.98;16.75;;;;;;;6.35;36.13;99534.06;4950387;28;97278;-75
2021/04/05 06:54:31;;;;;;;37.08;18.02;;;;;;;6.27;36.68;99533.03;4979257;28;99284;-75
2021/04/05 06:57:07;;;;;;;30.20;16.55;;;;;;;6.29;35.20;99525.16;4976834;28;97733;-77
2021/04/05 06:59:56;;;;;;;34.63;17.90;;;;;;;6.21;36.79;99532.91;4944488;28;97043;-75
2021/04/05 07:03:03;;;;;;;29.98;17.30;;;;;;;6.19;36.80;99511.75;4978014;28;96987;-76
2021/04/05 07:05:44;;;;;;;34.00;17.77;;;;;;;6.09;39.26;99504.50;4961899;28;99198;-76
2021/04/05 07:08:16;;;;;;;29.42;17.42;;;;;;;6.13;36.20;99502.81;4969760;28;97963;-75
2021/04/05 07:10:46;;;;;;;33.50;17.30;;;;;;;6.17;35.64;99499.38;4944136;28;97300;-76
2021/04/05 07:13:20;;;;;;;25.48;17.73;;;;;;;6.18;37.17;99499.41;4978633;28;97297;-76
2021/04/05 07:15:53;;;;;;;26.92;17.20;;;;;;;6.21;36.34;99469.53;4959669;28;100898;-75
2021/04/05 07:18:33;;;;;;;32.03;17.67;;;;;;;6.12;37.73;99511.59;4977796;28;99512;-76
2021/04/05 07:21:12;;;;;;;31.52;17.63;;;;;;;6.18;35.92;99496.75;4961439;28;97138;-76
2021/04/05 07:23:46;;;;;;;30.95;17.92;;;;;;;6.14;37.94;99472.91;4980666;28;97137;-75
2021/04/05 07:26:18;;;;;;;31.15;17.88;;;;;;;6.05;37.79;99484.19;4978097;28;97890;-75
2021/04/05 07:28:55;;;;;;;30.40;16.85;;;;;;;6.08;38.79;99478.97;4947000;28;99615;-76
2021/04/05 07:31:35;;;;;;;27.52;17.38;;;;;;;6.08;39.64;99483.38;4947242;28;97622;-75
2021/04/05 07:34:21;;;;;;;33.65;18.35;;;;;;;5.99;40.30;99478.81;4954084;28;97441;-75
2021/04/05 07:36:50;;;;;;;29.15;16.88;;;;;;;6.03;37.42;99492.97;4981420;28;98997;-75
2021/04/05 07:39:22;;;;;;;31.65;17.15;;;;;;;5.88;42.34;99516.41;4963616;28;97643;-75
2021/04/05 07:41:52;;;;;;;32.67;17.45;;;;;;;5.60;45.31;99483.31;4963914;28;97672;-76
2021/04/05 07:44:38;;;;;;;30.15;17.15;;;;;;;5.42;50.22;99488.19;4980945;28;96827;-75
2021/04/05 07:47:15;;;;;;;32.40;17.73;;;;;;;5.35;48.21;99469.56;4964513;28;99250;-75
2021/04/05 07:49:46;;;;;;;28.27;17.58;;;;;;;5.31;44.97;99473.91;4949560;28;100487;-75
2021/04/05 07:52:21;;;;;;;32.85;17.95;;;;;;;5.26;44.55;99474.66;4963058;28;97658;-75
2021/04/05 07:54:49;;;;;;;33.13;18.05;;;;;;;5.24;43.44;99477.25;4963759;28;96749;-76
2021/04/05 07:57:24;;;;;;;33.10;16.67;;;;;;;5.21;46.05;99469.25;4962293;28;97961;-75
2021/04/05 07:59:59;;;;;;;31.10;17.50;;;;;;;5.13;44.67;99478.78;4958256;28;99366;-75
2021/04/05 08:02:57;;;;;;;26.25;17.13;;;;;;;5.09;47.26;99482.19;4962003;28;97486;-76
2021/04/05 08:05:36;;;;;;;25.65;15.43;;;;;;;5.14;44.58;99472.63;4981138;28;97856;-75
2021/04/05 08:08:18;;;;;;;34.10;16.85;;;;;;;5.14;46.55;99475.25;4961569;28;99847;-76
2021/04/05 08:10:56;;;;;;;24.95;16.08;;;;;;;5.18;46.20;99488.56;4980269;28;97846;-75
2021/04/05 08:13:28;;;;;;;34.15;17.55;;;;;;;5.10;42.93;99465.53;4947346;28;97412;-76
2021/04/05 08:16:08;;;;;;;27.83;16.45;;;;;;;5.07;45.15;99489.19;4947276;28;96803;-75
2021/04/05 08:18:37;;;;;;;32.40;17.40;;;;;;;5.05;44.02;99465.41;4979832;28;98376;-76
2021/04/05 08:21:09;;;;;;;28.27;15.98;;;;;;;5.00;44.03;99464.41;4962218;28;99479;-75
2021/04/05 08:23:53;;;;;;;26.00;15.38;;;;;;;4.98;47.98;99459.94;4962809;28;96950;-76
2021/04/05 08:26:25;;;;;;;28.13;15.25;;;;;;;4.96;44.36;99464.28;4963451;28;97434;-75
2021/04/05 08:29:02;;;;;;;23.90;15.30;;;;;;;4.96;46.50;99448.47;4980021;28;97687;-75
2021/04/05 08:31:47;;;;;;;23.25;15.65;;;;;;;5.01;47.21;99467.94;4938344;28;97571;-75
2021/04/05 08:34:27;;;;;;;26.38;15.13;;;;;;;5.10;45.05;99473.44;4961668;28;97067;-75
2021/04/05 08:37:11;;;;;;;28.27;16.20;;;;;;;5.16;45.70;99492.00;4945307;28;96807;-76
2021/04/05 08:39:42;;;;;;;15.77;10.25;;;;;;;4.96;43.34;99543.34;4946081;28;100477;-75
2021/04/05 08:42:14;;;;;;;6.50;5.90;;;;;;;4.72;42.87;99551.56;4962078;28;99602;-75
2021/04/05 08:45:09;;;;;;;5.20;4.80;;;;;;;4.49;41.98;99552.75;4980081;28;96866;-76
2021/04/05 08:47:41;;;;;;;4.35;4.10;;;;;;;4.32;42.00;99563.69;4979503;28;97455;-76
2021/04/05 08:50:09;;;;;;;3.45;3.33;;;;;;;4.22;41.24;99552.03;4957017;28;99448;-75
2021/04/05 08:52:39;;;;;;;3.15;3.03;;;;;;;4.12;40.96;99569.31;4963057;28;100294;-75
2021/04/05 08:55:08;;;;;;;3.72;3.53;;;;;;;4.02;40.57;99576.91;4979241;28;97887;-75
2021/04/05 08:57:38;;;;;;;3.78;3.58;;;;;;;3.92;40.90;99591.53;4980078;28;97374;-76
2021/04/05 09:00:07;;;;;;;2.75;2.65;;;;;;;3.77;41.11;99583.19;4961842;28;99094;-75
2021/04/05 09:02:37;;;;;;;2.70;2.70;;;;;;;3.72;40.93;99576.00;4961032;28;100730;-76
2021/04/05 09:05:08;;;;;;;3.80;3.70;;;;;;;3.73;40.89;99589.22;4980223;28;97412;-76
2021/04/05 09:08:03;;;;;;;2.95;2.75;;;;;;;3.72;41.37;99602.31;4980064;28;96764;-75
2021/04/05 09:10:32;;;;;;;3.25;3.05;;;;;;;3.68;40.02;99601.34;4972948;28;98810;-76
2021/04/05 09:12:59;;;;;;;3.15;2.95;;;;;;;3.67;40.54;99604.84;4950451;28;98536;-76
2021/04/05 09:16:10;;;;;;;3.33;3.10;;;;;;;3.69;41.23;99616.31;4962492;28;97791;-76
2021/04/05 09:19:07;;;;;;;3.00;3.00;;;;;;;3.63;41.81;99610.81;4979901;28;97083;-75
2021/04/05 09:22:07;;;;;;;2.90;2.90;;;;;;;3.64;40.68;99606.44;4978385;28;96996;-76
2021/04/05 09:24:50;;;;;;;3.25;3.00;;;;;;;3.70;41.03;99606.66;4959229;28;100935;-75
2021/04/05 09:27:37;;;;;;;4.90;3.80;;;;;;;3.72;41.60;99597.97;4994501;28;97294;-76
2021/04/05 09:30:27;;;;;;;4.03;3.65;;;;;;;3.74;41.42;99612.06;4947244;28;97936;-75
2021/04/05 09:33:09;;;;;;;3.63;3.53;;;;;;;3.82;39.88;99605.28;4973731;28;100620;-75
2021/04/05 09:35:47;;;;;;;2.90;2.80;;;;;;;3.80;39.82;99601.72;4982299;28;97843;-74
2021/04/05 09:38:30;;;;;;;2.90;2.80;;;;;;;3.55;42.20;99622.81;4980260;28;97588;-74
2021/04/05 09:41:14;;;;;;;3.50;3.40;;;;;;;3.62;40.69;99616.94;4981366;28;97803;-74
2021/04/05 09:44:00;;;;;;;2.92;2.53;;;;;;;3.64;39.81;99628.34;4965293;28;100245;-74
2021/04/05 09:46:44;;;;;;;2.92;2.92;;;;;;;3.52;40.95;99625.38;4962838;28;99744;-74
2021/04/05 09:49:18;;;;;;;2.85;2.85;;;;;;;3.53;39.38;99624.50;4996296;28;97093;-74
2021/04/05 09:52:11;;;;;;;2.70;2.70;;;;;;;3.57;39.78;99622.91;4981540;28;97397;-74
2021/04/05 09:54:40;;;;;;;3.10;2.90;;;;;;;3.58;38.68;99633.47;4993982;28;99456;-74
2021/04/05 09:57:18;;;;;;;2.58;2.50;;;;;;;3.62;38.74;99618.66;4958810;28;100273;-74
2021/04/05 09:59:48;;;;;;;3.10;3.00;;;;;;;3.58;39.32;99629.94;4960296;28;97226;-77
2021/04/05 10:02:16;;;;;;;2.75;2.75;;;;;;;3.63;38.89;99634.47;4942365;28;97215;-74
2021/04/05 10:04:45;;;;;;;2.65;2.65;;;;;;;3.67;38.50;99628.50;4925131;28;100406;-76
2021/04/05 10:07:13;;;;;;;3.42;3.33;;;;;;;3.72;38.65;99634.78;4957566;28;100532;-74
2021/04/05 10:09:41;;;;;;;3.20;3.10;;;;;;;3.72;38.61;99629.53;4941459;28;97847;-74
2021/04/05 10:12:09;;;;;;;2.90;2.70;;;;;;;3.74;38.79;99643.63;4960270;28;98264;-74
2021/04/05 10:14:40;;;;;;;3.00;2.90;;;;;;;3.78;39.00;99650.78;4940369;28;97573;-74
2021/04/05 10:17:07;;;;;;;2.78;2.70;;;;;;;3.77;38.63;99648.97;4935653;28;99597;-74
2021/04/05 10:19:35;;;;;;;3.05;2.85;;;;;;;3.83;38.56;99643.91;4957728;28;97058;-74
2021/04/05 10:22:04;;;;;;;3.10;3.10;;;;;;;3.91;38.68;99631.88;4956513;28;97608;-75
2021/04/05 10:24:33;;;;;;;2.97;2.90;;;;;;;3.94;38.69;99642.47;4924932;28;99789;-74
2021/04/05 10:27:04;;;;;;;5.15;3.80;;;;;;;3.96;38.46;99646.03;4941380;28;100265;-75
2021/04/05 10:29:34;;;;;;;3.90;3.60;;;;;;;3.96;38.04;99642.50;4941278;28;96798;-76
2021/04/05 10:32:03;;;;;;;3.67;3.35;;;;;;;3.94;38.48;99634.59;4958624;28;97946;-75
2021/04/05 10:34:30;;;;;;;3.75;3.58;;;;;;;3.88;38.72;99634.41;4949706;28;98731;-75
2021/04/05 10:37:01;;;;;;;4.13;3.70;;;;;;;3.86;39.00;99649.25;4958896;28;99620;-74
2021/04/05 10:39:28;;;;;;;4.38;4.15;;;;;;;3.84;38.70;99652.69;4957201;28;98268;-76
2021/04/05 10:41:59;;;;;;;3.80;3.60;;;;;;;3.82;38.88;99657.00;4958656;28;96771;-74
2021/04/05 10:44:28;;;;;;;3.75;3.47;;;;;;;3.82;38.38;99655.28;4956874;28;99544;-75
2021/04/05 10:46:59;;;;;;;3.85;3.70;;;;;;;3.84;39.06;99655.31;4959175;28;98036;-75
2021/04/05 10:49:28;;;;;;;3.97;3.67;;;;;;;3.85;38.39;99650.09;4940827;28;98091;-75
2021/04/05 10:52:00;;;;;;;3.25;3.15;;;;;;;3.94;38.86;99657.38;4956869;28;97887;-74
2021/04/05 10:54:31;;;;;;;3.80;3.50;;;;;;;4.05;38.59;99656.84;4940537;28;97220;-74
2021/04/05 10:57:02;;;;;;;3.15;2.92;;;;;;;4.19;38.39;99666.03;4958032;28;97413;-75
2021/04/05 10:59:45;;;;;;;2.90;2.67;;;;;;;4.24;38.57;99656.50;4944312;28;97047;-74
2021/04/05 11:02:19;;;;;;;2.80;2.80;;;;;;;4.33;38.35;99658.53;4944454;28;97591;-75
2021/04/05 11:04:48;;;;;;;3.60;3.30;;;;;;;4.41;38.10;99666.66;4943211;28;99268;-75
2021/04/05 11:07:15;;;;;;;2.67;2.58;;;;;;;4.43;38.06;99672.81;4943794;28;98134;-74
2021/04/05 11:09:44;;;;;;;2.72;2.70;;;;;;;4.40;37.95;99675.38;4961196;28;97255;-75
2021/04/05 11:12:13;;;;;;;4.32;3.95;;;;;;;4.41;37.76;99674.53;4978208;28;98007;-74
2021/04/05 11:14:41;;;;;;;3.65;3.45;;;;;;;4.40;37.80;99691.19;4943420;28;100201;-75
2021/04/05 11:17:09;;;;;;;3.08;2.75;;;;;;;4.15;42.27;99716.78;4944044;28;99439;-75
2021/04/05 11:19:40;;;;;;;2.78;2.72;;;;;;;3.55;42.85;99730.66;4943274;28;97620;-75
2021/04/05 11:22:13;;;;;;;2.60;2.50;;;;;;;3.19;43.66;99719.84;4959315;28;97662;-75
2021/04/05 11:24:41;;;;;;;3.45;2.65;;;;;;;2.94;42.27;99730.38;4960908;28;97650;-76
2021/04/05 11:27:10;;;;;;;2.72;2.70;;;;;;;2.80;42.50;99723.72;4943248;28;99308;-75
2021/04/05 11:29:42;;;;;;;2.60;2.50;;;;;;;2.71;43.43;99725.16;4937256;28;98088;-75
2021/04/05 11:32:11;;;;;;;3.03;3.03;;;;;;;2.68;42.07;99717.13;4940794;28;97801;-76
2021/04/05 11:34:40;;;;;;;3.53;2.80;;;;;;;2.61;41.24;99715.13;4927735;28;98527;-74
2021/04/05 11:37:12;;;;;;;2.90;2.80;;;;;;;2.61;41.05;99713.41;4959307;28;97748;-74
2021/04/05 11:39:40;;;;;;;3.35;3.30;;;;;;;2.71;40.21;99706.75;4958070;28;98367;-74
2021/04/05 11:42:08;;;;;;;3.05;3.05;;;;;;;2.74;39.70;99709.47;4973684;28;97361;-74
2021/04/05 11:44:42;;;;;;;3.00;2.80;;;;;;;2.88;39.74;99742.38;4942707;28;99118;-74
2021/04/05 11:47:10;;;;;;;3.90;3.55;;;;;;;2.98;39.32;99733.97;4943035;28;100173;-72
2021/04/05 11:49:37;;;;;;;3.53;3.42;;;;;;;3.10;39.31;99744.91;4961733;28;97468;-74